SBSL/SLZ METAR and TAF weather

Enter ICAO airport designator
Station Type Date Time Source
SBSL METAR 2022/06/27 17:00 UTC NOAA

SBSL 271700Z 35008KT 9999 SCT020 FEW025TCU 31/25 Q1010


Station Type Date Time Source
SBSL Decoded METAR 2022/06/27 17:00 UTC NOAA

Sao Luiz Aeroporto , Brazil (SBSL) 02-36S 044-14W 53M
Jun 27, 2022 - 01:00 PM EDT / 2022.06.27 1700 UTC
Wind: from the N (350 degrees) at 9 MPH (8 KT):0
Visibility: greater than 7 mile(s):0
Sky conditions: partly cloudy
Weather: Towering cumulus clouds observed
Temperature: 87 F (31 C)
Heat index: 97.5 F (36.4 C):1
Dew Point: 77 F (25 C)
Relative Humidity: 70%
Pressure (altimeter): 29.83 in. Hg (1010 hPa)
ob: SBSL 271700Z 35008KT 9999 SCT020 FEW025TCU 31/25 Q1010
cycle: 17

Station Type Date Time Source
SBSL TAF 2022/06/27 18:28 UTC NOAA

TAF SBSL 271625Z 2718/2818 36007KT 9999 SCT020 TN27/2809Z TX32/2816Z
BECMG 2718/2720 06005KT
BECMG 2812/2815 10007KT
BECMG 2816/2818 36008KT 5000 SHRA BKN020 FEW025TCU
RMK PHC

Example: see airport list